Aeroporto :
LOGIN :

Iscrizione | Disclaimer

   EN    FR    IT 

 










Sommario :    VFR   VFR Marginale   IFR   IFR Intensivo   IFR Molto Intensivo
Visibilità : 
Base nubi : 
>= 8 km
>= 3000ft
5 / 8 km
1000 / 3000 ft
1500m / 5 km
500 / 1000 ft
800 / 1500m
200 / 500 ft
< 800m
< 200 ft
Simboli :   Temporali  Nebbia  Neve Forte  Precipitazioni Forti  Vento > 20 kt
SIGMETs :   Varie  Temporali  Ghiacco  Turbolenza  Onda orograficha  Ceneri Vulcaniche






- Altitudine del aeroporto : 48 ft
- Codice IATA : PSR


LIBP - Abruzzo Pescara

ULTIMO METAR :
  • 211050Z 06009KT 040V100 CAVOK 31/20 Q1009

METARs OBSOLETI :
  • 211020Z 06009KT 040V100 CAVOK 31/20 Q1009
  • 210950Z 08009KT 040V100 CAVOK 31/21 Q1009
  • 210920Z 06008KT 020V090 CAVOK 32/21 Q1009
  • 210850Z VRB02KT CAVOK 32/19 Q1009
  • 210820Z 16003KT 090V250 CAVOK 31/20 Q1010
  • 210750Z 19003KT 140V240 CAVOK 30/21 Q1010
  • 210720Z 24004KT 190V290 CAVOK 29/21 Q1010
  • 210650Z 23003KT 180V290 CAVOK 28/22 Q1010
  • 210620Z 23005KT CAVOK 26/22 Q1010

TAF TAF LIBP
Valido dal 21 a 06 ore il 22 a 06 ore UTC


210500Z 2106/2206 VRB05KT 9999 FEW030
BECMG 2110/2112 09010KT
BECMG 2117/2119 VRB05KT



MetMap, La meteo Aeronautica in un colpo d'occhio ! - Copyright ORBIFLY Dicembre 2007 - Disclaimer

ORBIFLY MET'MAP TEAM :

Programmazione e sviluppo : Alexandra Zaïnal
Concezione : Baudouin d'Aumeries
Supporto tecnico e logistico : Manuel Goepfert
Aiuto : Marc-Olivier Méhu
Aiuto per la traduzione : Arnaldo La Scala




FONTI E CREDITI :

   NOAA